Time;durP1;ratioP1;P1;durP2;ratioP2;P2;SDS_P1;SDS_P2;PMS_P1;PMS_P2;Temp;Humidity;BMP_temperature;BMP_pressure;BME280_temperature;BME280_humidity;BME280_pressure;Samples;Min_cycle;Max_cycle;Signal;HPM_P1;HPM_P2
2022/06/22 00:00:12;;;;;;;;;;;23.10;77.90;;;;;;4951927;28;19933;-80
2022/06/22 00:02:41;;;;;;;;;;;23.10;77.90;;;;;;4942451;28;19930;-80
2022/06/22 00:05:17;;;;;;;;;;;23.10;77.90;;;;;;4949827;28;20455;-80
2022/06/22 00:07:49;;;;;;;;;;;23.00;77.90;;;;;;4948145;28;19938;-79
2022/06/22 00:10:18;;;;;;;;;;;23.00;78.00;;;;;;4945207;28;19989;-80
2022/06/22 00:12:48;;;;;;;;;;;23.00;78.00;;;;;;4931782;28;20041;-79
2022/06/22 00:15:23;;;;;;;;;;;23.00;77.90;;;;;;4961871;28;19931;-80
2022/06/22 00:17:50;;;;;;;;;;;22.90;77.90;;;;;;4943002;28;20634;-79
2022/06/22 00:20:22;;;;;;;;;;;22.90;77.90;;;;;;4946150;28;20380;-80
2022/06/22 00:22:51;;;;;;;;;;;22.90;78.00;;;;;;4949798;28;19954;-79
2022/06/22 00:25:35;;;;;;;;;;;22.90;78.00;;;;;;4951534;28;20700;-80
2022/06/22 00:28:17;;;;;;;;;;;22.90;78.10;;;;;;4959945;28;19953;-79
2022/06/22 00:30:45;;;;;;;;;;;;;;;;;;4941589;28;20324;-79
2022/06/22 00:33:16;;;;;;;;;;;21.80;92.70;;;;;;4949195;28;19927;-80
2022/06/22 00:35:51;;;;;;;;;;;23.20;95.60;;;;;;4986787;28;19932;-80
2022/06/22 00:38:21;;;;;;;;;;;22.70;95.90;;;;;;4944831;28;19938;-80
2022/06/22 00:40:50;;;;;;;;;;;22.80;77.40;;;;;;4953635;28;19926;-79
2022/06/22 00:43:18;;;;;;;;;;;22.80;78.70;;;;;;4949591;28;19964;-79
2022/06/22 00:45:46;;;;;;;;;;;22.70;78.00;;;;;;4946378;28;20651;-79
2022/06/22 00:48:18;;;;;;;;;;;22.70;78.10;;;;;;4945658;28;19973;-80
2022/06/22 00:50:47;;;;;;;;;;;22.70;78.30;;;;;;4951648;28;20359;-79
2022/06/22 00:53:19;;;;;;;;;;;22.70;78.20;;;;;;4957027;28;21327;-79
2022/06/22 00:55:51;;;;;;;;;;;22.60;78.20;;;;;;4950365;28;19979;-79
2022/06/22 00:58:21;;;;;;;;;;;22.60;78.40;;;;;;4948097;28;19927;-79
2022/06/22 01:00:54;;;;;;;;;;;22.60;78.30;;;;;;4968530;28;19929;-79
2022/06/22 01:03:21;;;;;;;;;;;22.60;78.20;;;;;;4947535;28;19935;-79
2022/06/22 01:05:52;;;;;;;;;;;22.50;77.90;;;;;;4945856;28;19927;-80
2022/06/22 01:08:22;;;;;;;;;;;22.60;78.10;;;;;;4957777;28;19957;-80
2022/06/22 01:10:53;;;;;;;;;;;22.50;78.30;;;;;;4951031;28;19930;-79
2022/06/22 01:13:24;;;;;;;;;;;22.50;78.20;;;;;;4943371;28;19934;-79
2022/06/22 01:15:53;;;;;;;;;;;22.50;78.20;;;;;;4950316;28;19952;-79
2022/06/22 01:18:23;;;;;;;;;;;22.50;78.20;;;;;;4946138;28;19982;-79
2022/06/22 01:20:57;;;;;;;;;;;22.40;78.00;;;;;;4949544;28;19953;-80
2022/06/22 01:23:31;;;;;;;;;;;22.40;78.20;;;;;;4956417;28;20306;-79
2022/06/22 01:26:07;;;;;;;;;;;22.40;78.20;;;;;;4950321;28;20270;-80
2022/06/22 01:28:36;;;;;;;;;;;22.40;78.00;;;;;;4948390;28;19927;-80
2022/06/22 01:31:04;;;;;;;;;;;22.30;78.10;;;;;;4958019;28;20372;-79
2022/06/22 01:33:33;;;;;;;;;;;22.30;78.10;;;;;;4941821;28;20444;-80
2022/06/22 01:36:01;;;;;;;;;;;22.30;78.10;;;;;;4954173;28;20385;-80
2022/06/22 01:38:30;;;;;;;;;;;22.30;77.90;;;;;;4970330;28;20424;-79
2022/06/22 01:41:03;;;;;;;;;;;22.30;78.10;;;;;;4949785;28;19959;-80
2022/06/22 01:43:31;;;;;;;;;;;22.20;78.00;;;;;;4948749;28;19965;-80
2022/06/22 01:46:03;;;;;;;;;;;22.20;77.90;;;;;;4956185;28;19931;-79
2022/06/22 01:48:33;;;;;;;;;;;22.20;77.90;;;;;;4947613;28;20404;-79
2022/06/22 01:51:02;;;;;;;;;;;22.20;78.30;;;;;;4955563;28;19962;-80
2022/06/22 01:53:31;;;;;;;;;;;22.20;78.30;;;;;;4944351;28;19985;-79
2022/06/22 01:56:00;;;;;;;;;;;22.20;78.30;;;;;;4968995;28;19973;-79
2022/06/22 01:58:39;;;;;;;;;;;22.20;79.00;;;;;;4944974;28;20035;-80
2022/06/22 02:01:12;;;;;;;;;;;22.10;78.30;;;;;;4946762;28;19949;-79
2022/06/22 02:03:43;;;;;;;;;;;22.10;78.30;;;;;;4954155;28;19931;-79
2022/06/22 02:08:55;;;;;;;;;;;22.10;78.50;;;;;;4952575;28;20015;-80
2022/06/22 02:11:25;;;;;;;;;;;22.10;78.40;;;;;;4948030;28;19938;-79
2022/06/22 02:13:54;;;;;;;;;;;22.00;78.40;;;;;;4952643;28;19965;-80
2022/06/22 02:16:26;;;;;;;;;;;22.00;78.40;;;;;;4955905;28;19931;-79
2022/06/22 02:19:08;;;;;;;;;;;22.00;78.50;;;;;;4948288;28;19938;-79
2022/06/22 02:21:38;;;;;;;;;;;22.00;78.30;;;;;;4959318;28;19926;-79
2022/06/22 02:24:07;;;;;;;;;;;21.90;78.30;;;;;;4963038;28;19936;-79
2022/06/22 02:26:36;;;;;;;;;;;21.90;78.20;;;;;;4944929;28;19938;-80
2022/06/22 02:29:03;;;;;;;;;;;21.90;78.40;;;;;;4941609;28;19934;-80
2022/06/22 02:31:32;;;;;;;;;;;21.90;78.40;;;;;;4951262;28;19966;-79
2022/06/22 02:33:59;;;;;;;;;;;21.90;78.40;;;;;;4950530;28;19927;-79
2022/06/22 02:36:30;;;;;;;;;;;21.80;78.30;;;;;;4948944;28;19934;-79
2022/06/22 02:38:58;;;;;;;;;;;21.80;78.60;;;;;;4946421;28;19926;-79
2022/06/22 02:44:31;;;;;;;;;;;21.80;78.50;;;;;;4946749;28;19932;-79
2022/06/22 02:47:01;;;;;;;;;;;21.80;78.50;;;;;;4946146;28;20730;-79
2022/06/22 02:49:30;;;;;;;;;;;21.80;78.70;;;;;;4964406;28;19931;-79
2022/06/22 02:51:57;;;;;;;;;;;21.80;78.90;;;;;;4947085;28;19985;-80
2022/06/22 02:54:27;;;;;;;;;;;21.70;78.80;;;;;;4950676;28;19939;-79
2022/06/22 02:57:04;;;;;;;;;;;21.70;78.90;;;;;;4969989;28;19984;-80
2022/06/22 02:59:32;;;;;;;;;;;21.70;79.00;;;;;;4949937;28;20486;-79
2022/06/22 03:02:00;;;;;;;;;;;21.70;79.00;;;;;;4944832;28;19989;-80
2022/06/22 03:04:28;;;;;;;;;;;21.70;79.00;;;;;;4943884;28;19926;-79
2022/06/22 03:06:55;;;;;;;;;;;21.70;79.20;;;;;;4947811;28;19945;-79
2022/06/22 03:09:24;;;;;;;;;;;21.60;79.40;;;;;;4951441;28;19970;-80
2022/06/22 03:11:53;;;;;;;;;;;21.60;79.60;;;;;;4943972;28;19988;-79
2022/06/22 03:14:21;;;;;;;;;;;21.60;79.40;;;;;;4953184;28;20017;-79
2022/06/22 03:16:50;;;;;;;;;;;21.60;79.50;;;;;;4951017;28;19980;-80
2022/06/22 03:19:33;;;;;;;;;;;21.60;79.40;;;;;;4960046;28;20323;-80
2022/06/22 03:22:02;;;;;;;;;;;21.60;79.30;;;;;;4959908;28;19925;-79
2022/06/22 03:24:37;;;;;;;;;;;21.60;79.40;;;;;;4960548;28;20029;-79
2022/06/22 03:27:06;;;;;;;;;;;21.60;79.30;;;;;;4960445;28;19948;-79
2022/06/22 03:29:34;;;;;;;;;;;21.50;79.30;;;;;;4966612;28;20340;-79
2022/06/22 03:32:04;;;;;;;;;;;21.50;79.30;;;;;;4953925;28;19935;-79
2022/06/22 03:34:34;;;;;;;;;;;21.50;79.30;;;;;;4947309;28;19926;-79
2022/06/22 03:37:05;;;;;;;;;;;21.50;79.20;;;;;;4945828;28;19934;-79
2022/06/22 03:39:34;;;;;;;;;;;21.50;79.20;;;;;;4946584;28;19927;-79
2022/06/22 03:42:05;;;;;;;;;;;21.40;79.20;;;;;;4948154;28;19973;-79
2022/06/22 03:44:34;;;;;;;;;;;21.40;79.30;;;;;;4935545;28;20393;-79
2022/06/22 03:47:05;;;;;;;;;;;21.40;79.20;;;;;;4946569;28;19953;-82
2022/06/22 03:49:34;;;;;;;;;;;21.40;79.30;;;;;;4954856;28;19926;-79
2022/06/22 03:52:06;;;;;;;;;;;21.40;79.30;;;;;;4949534;28;19930;-79
2022/06/22 03:54:37;;;;;;;;;;;21.40;79.40;;;;;;4941837;28;19930;-79
2022/06/22 03:57:07;;;;;;;;;;;21.40;79.50;;;;;;4967495;28;19928;-79
2022/06/22 03:59:36;;;;;;;;;;;21.30;79.50;;;;;;4966204;28;20387;-79
2022/06/22 04:02:03;;;;;;;;;;;21.40;79.70;;;;;;4953598;28;19934;-79
2022/06/22 04:04:31;;;;;;;;;;;21.40;79.80;;;;;;4954070;28;19953;-79
2022/06/22 04:06:58;;;;;;;;;;;21.30;79.70;;;;;;4947061;28;19942;-79
2022/06/22 04:09:27;;;;;;;;;;;21.30;79.60;;;;;;4946954;28;20351;-79
2022/06/22 04:11:57;;;;;;;;;;;21.30;79.60;;;;;;4939083;28;19992;-79
2022/06/22 04:14:28;;;;;;;;;;;21.30;79.50;;;;;;4935068;28;19933;-79
2022/06/22 04:16:56;;;;;;;;;;;21.30;79.50;;;;;;4934952;28;19931;-79
2022/06/22 04:19:25;;;;;;;;;;;21.30;79.70;;;;;;4942946;28;19949;-79
2022/06/22 04:21:55;;;;;;;;;;;21.30;79.70;;;;;;4939121;28;19962;-79
2022/06/22 04:24:24;;;;;;;;;;;21.20;79.50;;;;;;4942888;28;19927;-78
2022/06/22 04:26:56;;;;;;;;;;;21.20;79.40;;;;;;4963006;28;19938;-79
2022/06/22 04:29:27;;;;;;;;;;;21.20;79.50;;;;;;4948563;28;19993;-79
2022/06/22 04:31:56;;;;;;;;;;;21.20;79.50;;;;;;4940218;28;19928;-79
2022/06/22 04:34:28;;;;;;;;;;;21.20;79.80;;;;;;4952587;28;20428;-79
2022/06/22 04:36:57;;;;;;;;;;;21.20;79.90;;;;;;4941496;28;19927;-80
2022/06/22 04:39:30;;;;;;;;;;;21.20;79.80;;;;;;4962937;28;19927;-79
2022/06/22 04:42:00;;;;;;;;;;;21.20;79.90;;;;;;4952114;28;19953;-80
2022/06/22 04:44:29;;;;;;;;;;;21.20;79.80;;;;;;4958297;28;20348;-82
2022/06/22 04:46:58;;;;;;;;;;;21.20;80.00;;;;;;4951406;28;20641;-79
2022/06/22 04:49:27;;;;;;;;;;;21.20;80.30;;;;;;4955933;28;19934;-80
2022/06/22 04:51:55;;;;;;;;;;;21.20;80.50;;;;;;4962496;28;20481;-84
2022/06/22 04:54:24;;;;;;;;;;;21.10;80.50;;;;;;4956129;28;19993;-80
2022/06/22 04:56:52;;;;;;;;;;;21.10;80.60;;;;;;4940909;28;20004;-82
2022/06/22 04:59:21;;;;;;;;;;;21.10;80.70;;;;;;4945743;28;19930;-80
2022/06/22 05:01:51;;;;;;;;;;;21.10;80.90;;;;;;4944928;28;19972;-81
2022/06/22 05:04:19;;;;;;;;;;;21.10;81.10;;;;;;4941133;28;19932;-80
2022/06/22 05:06:50;;;;;;;;;;;21.10;80.90;;;;;;4952418;28;19953;-79
2022/06/22 05:09:22;;;;;;;;;;;21.10;81.00;;;;;;4948147;28;20031;-80
2022/06/22 05:11:49;;;;;;;;;;;21.10;81.20;;;;;;4936597;28;20324;-78
2022/06/22 05:14:18;;;;;;;;;;;21.10;81.10;;;;;;4959195;28;19927;-79
2022/06/22 05:16:50;;;;;;;;;;;21.10;82.80;;;;;;4942634;28;19927;-78
2022/06/22 05:19:17;;;;;;;;;;;21.10;84.20;;;;;;4952700;28;19996;-79
2022/06/22 05:21:45;;;;;;;;;;;21.20;84.60;;;;;;4939318;28;19927;-80
2022/06/22 05:24:19;;;;;;;;;;;21.20;84.80;;;;;;4948309;28;20340;-81
2022/06/22 05:26:46;;;;;;;;;;;21.20;84.70;;;;;;4948471;28;19926;-81
2022/06/22 05:29:15;;;;;;;;;;;21.20;84.40;;;;;;4966596;28;19924;-81
2022/06/22 05:31:44;;;;;;;;;;;21.20;84.30;;;;;;4948940;28;20018;-81
2022/06/22 05:34:15;;;;;;;;;;;21.10;84.10;;;;;;4952410;28;21234;-81
2022/06/22 05:36:43;;;;;;;;;;;21.20;84.20;;;;;;4949676;28;20405;-81
2022/06/22 05:39:11;;;;;;;;;;;21.20;84.40;;;;;;4955239;28;19978;-81
2022/06/22 05:41:39;;;;;;;;;;;21.10;84.10;;;;;;4948803;28;19931;-81
2022/06/22 05:44:08;;;;;;;;;;;21.10;83.80;;;;;;4960904;28;19926;-81
2022/06/22 05:46:35;;;;;;;;;;;21.20;84.10;;;;;;4954626;28;19946;-81
2022/06/22 05:49:02;;;;;;;;;;;21.10;84.60;;;;;;4971181;28;20358;-81
2022/06/22 05:51:40;;;;;;;;;;;21.10;84.10;;;;;;4950990;28;20627;-81
2022/06/22 05:54:11;;;;;;;;;;;21.10;84.30;;;;;;4968215;28;19966;-81
2022/06/22 05:56:41;;;;;;;;;;;21.10;84.30;;;;;;4958602;28;19935;-80
2022/06/22 05:59:11;;;;;;;;;;;21.10;84.20;;;;;;4954348;28;19931;-80
2022/06/22 06:01:42;;;;;;;;;;;21.10;84.10;;;;;;4944172;28;20014;-80
2022/06/22 06:04:16;;;;;;;;;;;21.10;83.90;;;;;;4941180;28;19980;-81
2022/06/22 06:06:45;;;;;;;;;;;21.10;84.00;;;;;;4966598;28;20358;-80
2022/06/22 06:09:13;;;;;;;;;;;21.10;84.20;;;;;;4947902;28;19927;-81
2022/06/22 06:11:41;;;;;;;;;;;21.10;83.80;;;;;;4943168;28;20410;-81
2022/06/22 06:14:10;;;;;;;;;;;21.10;83.70;;;;;;4945911;28;19967;-79
2022/06/22 06:16:42;;;;;;;;;;;21.10;83.60;;;;;;4959409;28;19980;-79
2022/06/22 06:19:11;;;;;;;;;;;21.10;84.10;;;;;;4960085;28;19935;-80
2022/06/22 06:21:38;;;;;;;;;;;21.20;84.30;;;;;;4935110;28;19931;-80
2022/06/22 06:24:12;;;;;;;;;;;21.20;84.40;;;;;;4956430;28;19965;-79
2022/06/22 06:29:28;;;;;;;;;;;21.20;85.50;;;;;;4947739;28;20205;-79
2022/06/22 06:32:02;;;;;;;;;;;21.20;86.00;;;;;;4944738;28;20377;-78
2022/06/22 06:34:32;;;;;;;;;;;21.30;86.20;;;;;;4946623;28;19936;-78
2022/06/22 06:37:02;;;;;;;;;;;21.30;86.80;;;;;;4954238;28;19945;-78
2022/06/22 06:39:32;;;;;;;;;;;21.30;86.50;;;;;;4956840;28;19931;-78
2022/06/22 06:42:08;;;;;;;;;;;21.30;86.40;;;;;;4965227;28;19984;-78
2022/06/22 06:44:36;;;;;;;;;;;21.30;86.70;;;;;;4960922;28;19925;-78
2022/06/22 06:47:05;;;;;;;;;;;21.30;86.60;;;;;;4977494;28;19932;-78
2022/06/22 06:49:34;;;;;;;;;;;21.30;86.70;;;;;;4943146;28;19934;-78
2022/06/22 06:52:04;;;;;;;;;;;21.30;86.50;;;;;;4948806;28;19928;-78
2022/06/22 06:54:35;;;;;;;;;;;21.30;87.00;;;;;;4943889;28;19998;-78
2022/06/22 06:57:05;;;;;;;;;;;21.30;86.90;;;;;;4953898;28;19930;-78
2022/06/22 06:59:32;;;;;;;;;;;21.30;87.00;;;;;;4952357;28;20420;-78
2022/06/22 07:02:05;;;;;;;;;;;21.30;87.20;;;;;;4943299;28;19992;-78
2022/06/22 07:04:34;;;;;;;;;;;21.30;87.20;;;;;;4935702;28;20316;-78
2022/06/22 07:07:05;;;;;;;;;;;21.30;87.20;;;;;;4945084;28;20360;-78
2022/06/22 07:09:35;;;;;;;;;;;21.30;87.20;;;;;;4949234;28;19992;-78
2022/06/22 07:12:05;;;;;;;;;;;21.30;87.20;;;;;;4948459;28;20375;-78
2022/06/22 07:14:35;;;;;;;;;;;21.30;87.20;;;;;;4944840;28;20016;-78
2022/06/22 07:17:05;;;;;;;;;;;21.30;87.00;;;;;;4941508;28;19927;-78
2022/06/22 07:19:34;;;;;;;;;;;21.30;87.20;;;;;;4945514;28;19982;-78
2022/06/22 07:22:04;;;;;;;;;;;21.30;87.60;;;;;;4941642;28;19930;-78
2022/06/22 07:24:33;;;;;;;;;;;21.30;87.30;;;;;;4943707;28;19942;-78
2022/06/22 07:27:04;;;;;;;;;;;21.30;87.10;;;;;;4939891;28;19930;-79
2022/06/22 07:29:34;;;;;;;;;;;21.40;87.10;;;;;;4940212;28;19927;-78
2022/06/22 07:32:05;;;;;;;;;;;21.30;87.00;;;;;;4950973;28;19931;-78
2022/06/22 07:34:35;;;;;;;;;;;21.30;87.00;;;;;;4940062;28;20347;-78
2022/06/22 07:37:05;;;;;;;;;;;21.30;87.20;;;;;;4943453;28;19927;-78
2022/06/22 07:39:36;;;;;;;;;;;21.30;87.00;;;;;;4946568;28;19927;-78
2022/06/22 07:42:04;;;;;;;;;;;21.40;87.20;;;;;;4937340;28;19934;-78
2022/06/22 07:44:32;;;;;;;;;;;21.30;87.00;;;;;;4951146;28;19926;-78
2022/06/22 07:47:03;;;;;;;;;;;21.40;87.10;;;;;;4945494;28;20394;-78
2022/06/22 07:49:32;;;;;;;;;;;21.40;87.00;;;;;;4955378;28;20025;-78
2022/06/22 07:52:00;;;;;;;;;;;21.40;87.30;;;;;;4948489;28;20019;-78
2022/06/22 07:54:29;;;;;;;;;;;21.40;87.90;;;;;;4959096;28;19954;-78
2022/06/22 07:56:59;;;;;;;;;;;21.40;87.70;;;;;;4940516;28;19927;-78
2022/06/22 08:02:07;;;;;;;;;;;21.40;87.40;;;;;;4958912;28;20353;-78
2022/06/22 08:04:35;;;;;;;;;;;21.40;87.30;;;;;;4929666;28;19938;-77
2022/06/22 08:07:04;;;;;;;;;;;21.40;87.30;;;;;;4926028;28;19931;-78
2022/06/22 08:09:34;;;;;;;;;;;21.40;87.30;;;;;;4901474;28;19970;-76
2022/06/22 08:12:05;;;;;;;;;;;21.40;87.70;;;;;;4901950;28;19943;-76
2022/06/22 08:14:35;;;;;;;;;;;21.40;88.30;;;;;;4900752;28;19931;-77
2022/06/22 08:17:04;;;;;;;;;;;21.40;87.90;;;;;;4906255;28;19927;-77
2022/06/22 08:19:33;;;;;;;;;;;21.40;88.10;;;;;;4900482;28;19950;-78
2022/06/22 08:22:01;;;;;;;;;;;21.40;87.90;;;;;;4909719;28;19935;-78
2022/06/22 08:24:29;;;;;;;;;;;21.50;87.70;;;;;;4915243;28;19928;-77
2022/06/22 08:26:58;;;;;;;;;;;21.40;87.50;;;;;;4908467;28;19935;-78
2022/06/22 08:29:25;;;;;;;;;;;21.50;87.50;;;;;;4901636;28;19927;-76
2022/06/22 08:31:55;;;;;;;;;;;21.50;87.50;;;;;;4906132;28;19933;-77
2022/06/22 08:34:28;;;;;;;;;;;21.50;87.50;;;;;;4907784;28;19928;-77
2022/06/22 08:37:05;;;;;;;;;;;21.50;87.40;;;;;;4911070;28;19927;-75
2022/06/22 08:39:34;;;;;;;;;;;21.50;87.30;;;;;;4930612;28;20043;-78
2022/06/22 08:42:06;;;;;;;;;;;21.50;87.20;;;;;;4903837;28;19931;-76
2022/06/22 08:44:40;;;;;;;;;;;21.50;87.00;;;;;;4906689;28;19931;-77
2022/06/22 08:47:20;;;;;;;;;;;21.50;87.00;;;;;;4902624;28;19931;-77
2022/06/22 08:50:02;;;;;;;;;;;21.50;87.00;;;;;;4913494;28;20473;-78
2022/06/22 08:52:37;;;;;;;;;;;21.50;87.10;;;;;;4897872;28;20018;-78
2022/06/22 08:55:16;;;;;;;;;;;21.60;87.30;;;;;;4906572;28;19925;-78
2022/06/22 08:57:50;;;;;;;;;;;21.60;87.60;;;;;;4906604;28;19935;-77
2022/06/22 09:00:20;;;;;;;;;;;21.60;87.70;;;;;;4911399;28;20019;-77
2022/06/22 09:03:07;;;;;;;;;;;21.60;87.70;;;;;;4914774;28;20314;-78
2022/06/22 09:05:52;;;;;;;;;;;21.60;88.00;;;;;;4917162;28;20370;-78
2022/06/22 09:08:34;;;;;;;;;;;21.60;88.60;;;;;;4903108;28;20022;-77
2022/06/22 09:11:08;;;;;;;;;;;21.60;88.40;;;;;;4903477;28;19943;-76
2022/06/22 09:13:44;;;;;;;;;;;21.60;88.30;;;;;;4902800;28;20427;-77
2022/06/22 09:16:17;;;;;;;;;;;21.60;88.00;;;;;;4906286;28;19931;-77
2022/06/22 09:18:58;;;;;;;;;;;21.60;87.90;;;;;;4902011;28;19934;-76
2022/06/22 09:21:31;;;;;;;;;;;21.60;87.80;;;;;;4898166;28;19986;-77
2022/06/22 09:24:04;;;;;;;;;;;21.60;87.60;;;;;;4901690;28;20081;-76
2022/06/22 09:26:36;;;;;;;;;;;21.60;87.60;;;;;;4927417;28;19935;-77
2022/06/22 09:29:09;;;;;;;;;;;21.70;87.60;;;;;;4905081;28;19934;-77
2022/06/22 09:31:55;;;;;;;;;;;21.70;87.80;;;;;;4921524;28;19931;-78
2022/06/22 09:34:28;;;;;;;;;;;21.70;87.90;;;;;;4903865;28;19963;-79
2022/06/22 09:37:10;;;;;;;;;;;21.70;87.80;;;;;;4910280;28;19985;-78
2022/06/22 09:39:52;;;;;;;;;;;21.70;87.90;;;;;;4905245;28;19954;-78
2022/06/22 09:42:26;;;;;;;;;;;21.70;88.00;;;;;;4913932;28;20205;-79
2022/06/22 09:45:00;;;;;;;;;;;21.70;88.20;;;;;;4899583;28;19927;-79
2022/06/22 09:47:35;;;;;;;;;;;21.70;88.30;;;;;;4921786;28;19978;-79
2022/06/22 09:50:23;;;;;;;;;;;21.70;88.40;;;;;;4896906;28;20030;-80
2022/06/22 09:53:02;;;;;;;;;;;21.70;88.40;;;;;;4900311;28;19935;-79
2022/06/22 09:58:38;;;;;;;;;;;21.70;87.90;;;;;;4915357;28;19970;-79
2022/06/22 10:01:10;;;;;;;;;;;21.80;88.10;;;;;;4917507;28;19935;-79
2022/06/22 10:04:04;;;;;;;;;;;21.80;87.90;;;;;;4909921;28;20442;-79
2022/06/22 10:06:49;;;;;;;;;;;21.80;88.10;;;;;;4883124;28;20368;-80
2022/06/22 10:09:28;;;;;;;;;;;21.80;88.00;;;;;;4927119;28;20014;-79
2022/06/22 10:12:01;;;;;;;;;;;21.80;88.00;;;;;;4916283;28;20353;-80
2022/06/22 10:14:46;;;;;;;;;;;21.80;87.80;;;;;;4911189;28;20397;-79
2022/06/22 10:17:29;;;;;;;;;;;21.80;87.80;;;;;;4910013;28;19935;-79
2022/06/22 10:20:04;;;;;;;;;;;21.90;88.30;;;;;;4919702;28;20405;-79
2022/06/22 10:22:37;;;;;;;;;;;21.90;88.40;;;;;;4924686;28;20022;-79
2022/06/22 10:25:18;;;;;;;;;;;21.90;88.40;;;;;;4917425;28;20472;-79
2022/06/22 10:28:01;;;;;;;;;;;21.90;88.50;;;;;;4912404;28;20354;-79
2022/06/22 10:30:33;;;;;;;;;;;21.90;88.20;;;;;;4923765;28;19931;-81
2022/06/22 10:33:11;;;;;;;;;;;21.90;88.30;;;;;;4898808;28;20010;-77
2022/06/22 10:35:58;;;;;;;;;;;21.90;88.20;;;;;;4903620;28;19978;-78
2022/06/22 10:38:37;;;;;;;;;;;21.90;88.10;;;;;;4912632;28;20291;-79
2022/06/22 10:47:07;;;;;;;;;;;21.90;89.30;;;;;;4909323;28;20330;-78
2022/06/22 10:49:43;;;;;;;;;;;22.00;89.90;;;;;;4909659;28;20464;-79
2022/06/22 10:52:20;;;;;;;;;;;22.00;90.20;;;;;;4914864;28;20030;-79
2022/06/22 10:54:56;;;;;;;;;;;22.00;90.10;;;;;;4920173;28;19929;-79
2022/06/22 10:57:30;;;;;;;;;;;22.00;90.30;;;;;;4916937;28;19927;-78
2022/06/22 11:00:16;;;;;;;;;;;22.00;90.30;;;;;;4909136;28;19935;-78
2022/06/22 11:02:52;;;;;;;;;;;22.00;90.20;;;;;;4903627;28;20291;-78
2022/06/22 11:05:36;;;;;;;;;;;22.00;90.20;;;;;;4912884;28;20017;-79
2022/06/22 11:08:10;;;;;;;;;;;22.00;90.10;;;;;;4916177;28;19933;-77
2022/06/22 11:10:43;;;;;;;;;;;22.00;90.20;;;;;;4911355;28;19970;-77
2022/06/22 11:13:20;;;;;;;;;;;22.00;90.30;;;;;;4914119;28;19938;-78
2022/06/22 11:15:55;;;;;;;;;;;22.00;90.60;;;;;;4911623;28;20012;-81
2022/06/22 11:18:34;;;;;;;;;;;22.00;90.60;;;;;;4905750;28;20565;-81
2022/06/22 11:21:08;;;;;;;;;;;22.10;90.70;;;;;;4913636;28;19955;-78
2022/06/22 11:23:44;;;;;;;;;;;22.10;90.90;;;;;;4909229;28;19928;-81
2022/06/22 11:32:13;;;;;;;;;;;22.00;90.80;;;;;;4928136;28;19980;-81
2022/06/22 11:34:59;;;;;;;;;;;22.00;90.60;;;;;;4912524;28;20030;-80
2022/06/22 11:37:33;;;;;;;;;;;22.00;90.70;;;;;;4908924;28;19927;-80
2022/06/22 11:40:12;;;;;;;;;;;22.00;90.60;;;;;;4913686;28;19934;-81
2022/06/22 11:42:42;;;;;;;;;;;22.00;90.60;;;;;;4930013;28;19942;-79
2022/06/22 11:48:10;;;;;;;;;;;22.00;90.90;;;;;;4908295;28;19931;-81
2022/06/22 11:50:43;;;;;;;;;;;22.00;90.70;;;;;;4925169;28;19911;-82
2022/06/22 11:53:19;;;;;;;;;;;22.00;90.70;;;;;;4909955;28;19942;-81
2022/06/22 11:55:48;;;;;;;;;;;22.00;90.80;;;;;;4920298;28;19935;-79
2022/06/22 11:58:22;;;;;;;;;;;22.00;90.90;;;;;;4929057;28;19935;-81
2022/06/22 12:00:55;;;;;;;;;;;22.00;90.90;;;;;;4917705;28;19981;-81
2022/06/22 12:03:34;;;;;;;;;;;22.00;91.10;;;;;;4908605;28;19931;-79
2022/06/22 12:06:14;;;;;;;;;;;21.90;90.90;;;;;;4918621;28;20009;-79
2022/06/22 12:09:04;;;;;;;;;;;22.00;91.00;;;;;;4913761;28;20753;-81
2022/06/22 12:11:38;;;;;;;;;;;21.90;91.00;;;;;;4917701;28;20265;-77
2022/06/22 12:17:04;;;;;;;;;;;22.00;91.10;;;;;;4914454;28;19924;-78
2022/06/22 12:19:35;;;;;;;;;;;22.00;91.10;;;;;;4913999;28;19931;-78
2022/06/22 12:22:16;;;;;;;;;;;21.90;91.00;;;;;;4894188;28;20038;-77
2022/06/22 12:24:54;;;;;;;;;;;21.90;91.10;;;;;;4905573;28;19935;-78
2022/06/22 12:27:24;;;;;;;;;;;21.90;91.10;;;;;;4940382;28;19967;-79
2022/06/22 12:30:18;;;;;;;;;;;21.90;91.20;;;;;;4916040;28;20026;-77
2022/06/22 12:32:49;;;;;;;;;;;21.90;91.20;;;;;;4928132;28;19944;-78
2022/06/22 12:35:20;;;;;;;;;;;21.90;91.40;;;;;;4911177;28;20297;-79
2022/06/22 12:37:50;;;;;;;;;;;22.00;91.40;;;;;;4938794;28;19934;-79
2022/06/22 12:40:22;;;;;;;;;;;22.00;91.40;;;;;;4914863;28;19934;-80
2022/06/22 12:42:56;;;;;;;;;;;22.00;91.40;;;;;;4925224;28;20291;-78
2022/06/22 12:45:41;;;;;;;;;;;22.00;91.40;;;;;;4918488;28;19982;-79
2022/06/22 12:48:24;;;;;;;;;;;22.00;91.40;;;;;;4889779;28;19935;-78
2022/06/22 12:50:55;;;;;;;;;;;22.00;91.40;;;;;;4906156;28;19958;-79
2022/06/22 12:53:26;;;;;;;;;;;22.00;91.30;;;;;;5033882;23;19931;-93
2022/06/22 12:55:57;;;;;;;;;;;21.90;91.30;;;;;;5083921;28;19964;-95
2022/06/22 12:58:27;;;;;;;;;;;22.00;91.30;;;;;;5074683;28;20000;-94
2022/06/22 13:00:56;;;;;;;;;;;22.00;91.30;;;;;;5079467;28;20005;-96
2022/06/22 13:03:24;;;;;;;;;;;22.00;91.30;;;;;;5072854;28;19931;-94
2022/06/22 13:05:52;;;;;;;;;;;22.00;91.30;;;;;;5078502;28;19929;-92
2022/06/22 13:08:20;;;;;;;;;;;22.00;91.40;;;;;;5078722;28;19924;-92
2022/06/22 13:10:49;;;;;;;;;;;22.00;91.40;;;;;;5054228;28;19962;-93
2022/06/22 13:13:20;;;;;;;;;;;22.00;91.40;;;;;;5058019;28;19928;-95
2022/06/22 13:15:52;;;;;;;;;;;22.00;91.40;;;;;;5058277;28;19924;-93
2022/06/22 13:18:27;;;;;;;;;;;22.00;91.40;;;;;;5055535;28;19959;-94
2022/06/22 13:20:58;;;;;;;;;;;22.00;91.40;;;;;;5074619;28;19993;-93
2022/06/22 13:23:34;;;;;;;;;;;22.00;91.40;;;;;;5057712;28;19935;-94
2022/06/22 13:26:08;;;;;;;;;;;22.00;91.30;;;;;;5065869;28;19936;-94
2022/06/22 13:28:40;;;;;;;;;;;22.00;91.30;;;;;;5074869;28;19960;-93
2022/06/22 13:31:12;;;;;;;;;;;22.10;91.30;;;;;;5071342;28;19933;-92
2022/06/22 13:33:41;;;;;;;;;;;22.00;91.30;;;;;;5074822;28;19932;-93
2022/06/22 13:36:11;;;;;;;;;;;22.00;91.30;;;;;;5075959;28;19932;-93
2022/06/22 13:38:53;;;;;;;;;;;22.10;91.40;;;;;;5073799;28;19952;-93
2022/06/22 13:41:26;;;;;;;;;;;22.10;91.40;;;;;;5050991;28;19925;-93
2022/06/22 13:44:03;;;;;;;;;;;22.10;91.40;;;;;;5075648;28;19988;-92
2022/06/22 13:46:40;;;;;;;;;;;22.10;91.40;;;;;;5081914;28;19925;-93
2022/06/22 13:49:11;;;;;;;;;;;22.10;91.40;;;;;;5064012;28;19929;-95
2022/06/22 13:51:57;;;;;;;;;;;22.10;91.40;;;;;;5052973;28;19978;-94
2022/06/22 13:54:39;;;;;;;;;;;22.10;91.40;;;;;;5041749;28;20291;-92
2022/06/22 13:57:10;;;;;;;;;;;22.20;91.50;;;;;;5039143;28;19994;-94
2022/06/22 13:59:44;;;;;;;;;;;22.10;91.30;;;;;;5050746;28;19929;-93
2022/06/22 14:02:19;;;;;;;;;;;22.20;91.40;;;;;;5054511;28;20387;-94
2022/06/22 14:04:50;;;;;;;;;;;22.20;91.40;;;;;;5052648;28;19929;-93
2022/06/22 14:07:22;;;;;;;;;;;22.20;91.30;;;;;;5053960;28;19931;-93
2022/06/22 14:09:52;;;;;;;;;;;22.20;91.30;;;;;;5062761;28;19947;-94
2022/06/22 14:12:21;;;;;;;;;;;22.20;91.10;;;;;;5043227;28;19979;-93
2022/06/22 14:14:55;;;;;;;;;;;22.20;90.90;;;;;;5041291;28;20410;-92
2022/06/22 14:17:24;;;;;;;;;;;22.20;90.80;;;;;;5045136;28;19996;-94
2022/06/22 14:19:56;;;;;;;;;;;22.30;90.80;;;;;;5038085;28;20058;-93
2022/06/22 14:22:26;;;;;;;;;;;22.30;90.90;;;;;;5040918;28;19924;-93
2022/06/22 14:24:56;;;;;;;;;;;22.30;90.90;;;;;;5054994;28;19924;-94
2022/06/22 14:27:32;;;;;;;;;;;22.30;91.00;;;;;;5057636;28;20134;-93
2022/06/22 14:30:12;;;;;;;;;;;22.40;91.20;;;;;;5053506;28;19932;-95
2022/06/22 14:32:48;;;;;;;;;;;22.30;91.50;;;;;;5030467;28;19933;-94
2022/06/22 14:35:24;;;;;;;;;;;22.40;91.30;;;;;;5037845;28;19929;-95
2022/06/22 14:37:54;;;;;;;;;;;22.40;91.30;;;;;;5043343;28;20362;-93
2022/06/22 14:40:23;;;;;;;;;;;22.40;91.50;;;;;;5040535;28;19932;-94
2022/06/22 14:42:53;;;;;;;;;;;22.50;91.60;;;;;;5048691;28;20409;-93
2022/06/22 14:45:25;;;;;;;;;;;22.50;91.20;;;;;;5049755;28;20385;-94
2022/06/22 14:47:54;;;;;;;;;;;22.50;91.10;;;;;;5042204;28;19925;-95
2022/06/22 14:50:25;;;;;;;;;;;22.50;91.40;;;;;;5042718;28;19956;-93
2022/06/22 14:52:55;;;;;;;;;;;22.60;91.40;;;;;;5047620;28;19970;-94
2022/06/22 14:55:27;;;;;;;;;;;22.60;91.40;;;;;;5053829;28;20506;-92
2022/06/22 14:57:58;;;;;;;;;;;22.60;91.40;;;;;;5059890;28;20288;-94
2022/06/22 15:00:32;;;;;;;;;;;22.60;91.40;;;;;;5056888;28;19995;-95
2022/06/22 15:03:03;;;;;;;;;;;22.70;91.30;;;;;;5057015;28;20398;-93
2022/06/22 15:05:32;;;;;;;;;;;22.70;91.30;;;;;;5058257;28;19932;-94
2022/06/22 15:08:02;;;;;;;;;;;22.70;91.30;;;;;;5048811;28;19933;-94
2022/06/22 15:10:33;;;;;;;;;;;22.70;91.30;;;;;;5056585;28;20694;-93
2022/06/22 15:13:03;;;;;;;;;;;22.70;91.20;;;;;;5053580;28;19964;-93
2022/06/22 15:15:34;;;;;;;;;;;22.80;91.30;;;;;;5055312;28;20399;-93
2022/06/22 15:18:12;;;;;;;;;;;22.80;91.20;;;;;;5052395;28;20145;-93